Time;durP1;ratioP1;P1;durP2;ratioP2;P2;SDS_P1;SDS_P2;PMS_P1;PMS_P2;Temp;Humidity;BMP_temperature;BMP_pressure;BME280_temperature;BME280_humidity;BME280_pressure;Samples;Min_cycle;Max_cycle;Signal;HPM_P1;HPM_P2
2023/01/22 00:00:59;;;;;;;18.23;9.50;;;;;;;-4.91;100.00;93408.28;2569306;23;20008;-83
2023/01/22 00:02:00;;;;;;;16.77;9.95;;;;;;;-4.91;100.00;93409.06;2556815;23;20001;-82
2023/01/22 00:03:01;;;;;;;17.65;10.35;;;;;;;-4.95;100.00;93412.59;2569674;23;20151;-83
2023/01/22 00:04:02;;;;;;;17.95;9.88;;;;;;;-4.92;100.00;93407.50;2569542;23;20004;-82
2023/01/22 00:05:04;;;;;;;17.58;9.48;;;;;;;-4.88;100.00;93411.00;2557343;23;20395;-82
2023/01/22 00:06:05;;;;;;;17.52;9.60;;;;;;;-4.90;100.00;93405.38;2557503;23;20009;-82
2023/01/22 00:07:06;;;;;;;19.27;9.75;;;;;;;-4.85;100.00;93410.41;2569800;22;20084;-80
2023/01/22 00:08:07;;;;;;;17.95;10.30;;;;;;;-4.88;100.00;93408.41;2582019;23;20083;-82
2023/01/22 00:09:08;;;;;;;19.02;9.77;;;;;;;-4.92;100.00;93401.53;2582588;22;20000;-81
2023/01/22 00:10:10;;;;;;;17.42;9.80;;;;;;;-4.94;100.00;93406.28;2569903;23;20001;-82
2023/01/22 00:11:11;;;;;;;18.83;10.45;;;;;;;-4.94;100.00;93406.28;2570585;22;20015;-82
2023/01/22 00:12:12;;;;;;;17.75;9.57;;;;;;;-4.96;100.00;93403.22;2582683;23;20012;-83
2023/01/22 00:13:16;;;;;;;17.45;9.90;;;;;;;-4.97;100.00;93404.31;2570011;23;20005;-81
2023/01/22 00:14:17;;;;;;;15.20;8.48;;;;;;;-5.01;100.00;93406.75;2571254;22;20032;-81
2023/01/22 00:15:18;;;;;;;16.58;8.25;;;;;;;-4.98;100.00;93400.94;2570033;23;20004;-83
2023/01/22 00:16:19;;;;;;;15.90;9.90;;;;;;;-4.82;100.00;93399.38;2570071;23;20035;-84
2023/01/22 00:17:22;;;;;;;16.45;9.27;;;;;;;-4.82;100.00;93403.81;2570220;23;20009;-83
2023/01/22 00:18:23;;;;;;;17.75;9.70;;;;;;;-4.89;100.00;93399.06;2558014;23;20455;-83
2023/01/22 00:19:24;;;;;;;19.73;10.40;;;;;;;-4.87;100.00;93398.78;2557556;23;20009;-82
2023/01/22 00:20:25;;;;;;;18.65;10.77;;;;;;;-4.86;100.00;93402.91;2557629;23;20100;-83
2023/01/22 00:21:26;;;;;;;18.40;9.98;;;;;;;-4.88;100.00;93403.19;2570078;23;20456;-82
2023/01/22 00:22:27;;;;;;;16.42;9.40;;;;;;;-4.93;100.00;93398.16;2569953;22;20005;-82
2023/01/22 00:23:28;;;;;;;13.88;8.98;;;;;;;-4.92;100.00;93396.31;2570164;23;20008;-83
2023/01/22 00:24:29;;;;;;;14.32;8.82;;;;;;;-4.87;100.00;93393.56;2557542;23;20091;-82
2023/01/22 00:25:30;;;;;;;15.00;8.85;;;;;;;-4.76;100.00;93397.34;2557439;23;20419;-82
2023/01/22 00:26:31;;;;;;;15.35;9.27;;;;;;;-4.78;100.00;93393.50;2570281;23;20034;-83
2023/01/22 00:27:32;;;;;;;14.20;8.45;;;;;;;-4.83;100.00;93392.63;2557197;23;20401;-81
2023/01/22 00:28:33;;;;;;;16.13;9.15;;;;;;;-4.76;100.00;93393.97;2570001;23;20000;-83
2023/01/22 00:29:34;;;;;;;15.32;8.45;;;;;;;-4.73;100.00;93395.97;2569885;22;20083;-82
2023/01/22 00:30:35;;;;;;;13.68;8.73;;;;;;;-4.80;100.00;93388.63;2581770;23;20032;-82
2023/01/22 00:31:36;;;;;;;16.70;8.77;;;;;;;-4.71;100.00;93385.97;2569887;23;20134;-82
2023/01/22 00:32:37;;;;;;;16.95;9.60;;;;;;;-4.68;100.00;93390.56;2557448;23;20005;-82
2023/01/22 00:33:39;;;;;;;17.63;10.13;;;;;;;-4.62;100.00;93391.91;2569913;23;20472;-83
2023/01/22 00:34:40;;;;;;;17.58;10.15;;;;;;;-4.72;100.00;93394.88;2582572;22;20004;-84
2023/01/22 00:35:41;;;;;;;17.65;10.10;;;;;;;-4.70;100.00;93390.88;2570034;23;20777;-82
2023/01/22 00:36:42;;;;;;;34.72;17.70;;;;;;;-4.78;100.00;93386.47;2582380;22;20008;-81
2023/01/22 00:37:46;;;;;;;27.23;14.18;;;;;;;-4.83;100.00;93382.19;2582291;23;20023;-83
2023/01/22 00:38:48;;;;;;;17.45;11.00;;;;;;;-4.84;100.00;93385.84;2582967;22;20011;-83
2023/01/22 00:39:49;;;;;;;18.23;11.30;;;;;;;-4.84;100.00;93383.25;2570265;23;20095;-84
2023/01/22 00:40:50;;;;;;;17.52;10.52;;;;;;;-4.79;100.00;93386.75;2570176;23;20016;-83
2023/01/22 00:41:51;;;;;;;17.08;10.63;;;;;;;-4.81;100.00;93380.03;2557587;23;20060;-81
2023/01/22 00:42:52;;;;;;;19.85;11.80;;;;;;;-4.85;100.00;93375.75;2557577;23;20192;-83
2023/01/22 00:43:53;;;;;;;16.98;10.32;;;;;;;-4.85;100.00;93371.31;2557382;23;20008;-81
2023/01/22 00:44:54;;;;;;;16.08;9.52;;;;;;;-4.81;100.00;93380.03;2557505;23;20005;-81
2023/01/22 00:45:55;;;;;;;16.95;9.90;;;;;;;-4.77;100.00;93379.41;2570193;22;20000;-82
2023/01/22 00:46:56;;;;;;;18.65;10.65;;;;;;;-4.74;100.00;93379.56;2595150;22;20485;-82
2023/01/22 00:47:57;;;;;;;16.02;9.82;;;;;;;-4.92;100.00;93372.84;2570033;23;20047;-82
2023/01/22 00:48:59;;;;;;;15.52;9.57;;;;;;;-4.95;100.00;93376.88;2557385;23;20657;-82
2023/01/22 00:50:00;;;;;;;19.40;10.70;;;;;;;-4.93;100.00;93377.31;2569972;23;20011;-83
2023/01/22 00:51:02;;;;;;;17.15;11.30;;;;;;;-4.94;100.00;93375.78;2557857;23;20009;-82
2023/01/22 00:52:03;;;;;;;18.60;10.55;;;;;;;-4.92;100.00;93370.25;2557686;23;20100;-83
2023/01/22 00:53:04;;;;;;;17.92;10.70;;;;;;;-4.75;100.00;93372.78;2582439;23;20000;-81
2023/01/22 00:54:07;;;;;;;21.23;12.10;;;;;;;-4.79;100.00;93371.88;2569847;23;20094;-83
2023/01/22 00:55:08;;;;;;;22.40;13.40;;;;;;;-4.88;100.00;93374.53;2582203;22;20004;-81
2023/01/22 00:56:11;;;;;;;17.05;11.20;;;;;;;-4.91;100.00;93372.56;2557491;23;20100;-83
2023/01/22 00:57:12;;;;;;;19.00;10.55;;;;;;;-4.93;100.00;93377.31;2558494;23;20012;-83
2023/01/22 00:58:13;;;;;;;17.02;10.40;;;;;;;-4.95;100.00;93376.09;2581817;23;20031;-82
2023/01/22 00:59:14;;;;;;;19.50;11.30;;;;;;;-4.95;100.00;93371.66;2569897;23;20004;-81
2023/01/22 01:00:16;;;;;;;16.80;10.77;;;;;;;-4.89;100.00;93377.44;2557233;23;20587;-81
2023/01/22 01:01:18;;;;;;;17.52;9.48;;;;;;;-4.89;100.00;93373.00;2558245;23;20393;-83
2023/01/22 01:02:19;;;;;;;17.92;10.23;;;;;;;-4.88;100.00;93366.69;2557728;23;20008;-82
2023/01/22 01:03:26;;;;;;;18.05;10.90;;;;;;;-4.85;100.00;93380.97;2557226;23;20083;-83
2023/01/22 01:04:27;;;;;;;15.63;9.60;;;;;;;-4.89;100.00;93370.38;2571124;23;20420;-81
2023/01/22 01:05:28;;;;;;;15.15;9.15;;;;;;;-4.90;100.00;93368.88;2557264;23;20083;-81
2023/01/22 01:06:29;;;;;;;17.42;10.30;;;;;;;-4.83;100.00;93368.38;2557576;23;20357;-83
2023/01/22 01:07:30;;;;;;;18.15;9.75;;;;;;;-4.84;100.00;93374.66;2557522;23;20440;-82
2023/01/22 01:08:36;;;;;;;19.52;10.15;;;;;;;-4.88;100.00;93368.56;2557365;23;20005;-82
2023/01/22 01:09:37;;;;;;;16.75;9.23;;;;;;;-4.85;100.00;93365.31;2582347;23;20008;-83
2023/01/22 01:10:38;;;;;;;16.33;9.23;;;;;;;-4.86;100.00;93369.00;2557559;23;20055;-82
2023/01/22 01:11:39;;;;;;;16.85;9.15;;;;;;;-4.83;100.00;93363.94;2569894;23;20424;-81
2023/01/22 01:12:40;;;;;;;16.75;9.35;;;;;;;-4.87;100.00;93373.47;2569986;23;20037;-82
2023/01/22 01:13:42;;;;;;;14.75;9.07;;;;;;;-4.91;100.00;93364.75;2582361;23;20335;-81
2023/01/22 01:14:55;;;;;;;15.50;9.55;;;;;;;-4.91;100.00;93362.13;2570402;23;20000;-83
2023/01/22 01:16:04;;;;;;;15.10;9.32;;;;;;;-4.84;100.00;93364.25;2573827;23;20015;-82
2023/01/22 01:17:05;;;;;;;14.18;8.40;;;;;;;-4.84;100.00;93361.63;2576623;23;20000;-82
2023/01/22 01:18:11;;;;;;;14.15;8.98;;;;;;;-4.82;100.00;93362.09;2562259;23;20001;-83
2023/01/22 01:19:12;;;;;;;12.60;8.27;;;;;;;-4.87;100.00;93354.47;2562298;23;20005;-82
2023/01/22 01:20:14;;;;;;;14.65;8.85;;;;;;;-4.87;100.00;93357.81;2584015;23;19996;-83
2023/01/22 01:21:16;;;;;;;15.40;8.80;;;;;;;-4.88;100.00;93358.13;2571747;22;20015;-81
2023/01/22 01:22:17;;;;;;;14.70;8.40;;;;;;;-4.94;100.00;93367.97;2583331;23;20000;-81
2023/01/22 01:23:18;;;;;;;13.32;8.20;;;;;;;-4.90;100.00;93357.69;2571402;23;20439;-83
2023/01/22 01:24:19;;;;;;;12.90;8.65;;;;;;;-4.83;100.00;93355.34;2559228;23;20031;-83
2023/01/22 01:25:20;;;;;;;16.17;9.45;;;;;;;-4.85;100.00;93358.25;2571050;23;20078;-82
2023/01/22 01:26:22;;;;;;;12.43;8.30;;;;;;;-4.85;100.00;93360.09;2570967;22;19997;-82
2023/01/22 01:27:23;;;;;;;15.48;8.68;;;;;;;-4.91;100.00;93354.31;2583286;22;20079;-81
2023/01/22 01:28:24;;;;;;;12.38;8.80;;;;;;;-4.95;100.00;93350.81;2570280;23;20005;-83
2023/01/22 01:29:25;;;;;;;14.45;8.55;;;;;;;-4.94;100.00;93347.09;2570595;22;20067;-82
2023/01/22 01:30:26;;;;;;;15.98;8.73;;;;;;;-4.88;100.00;93351.06;2570013;23;20005;-83
2023/01/22 01:31:27;;;;;;;17.25;9.20;;;;;;;-4.91;100.00;93349.09;2570262;23;20028;-82
2023/01/22 01:32:28;;;;;;;14.00;8.43;;;;;;;-4.92;100.00;93350.16;2582821;23;20000;-83
2023/01/22 01:33:29;;;;;;;14.13;8.88;;;;;;;-4.94;100.00;93357.53;2570015;23;20004;-83
2023/01/22 01:34:30;;;;;;;16.55;9.55;;;;;;;-4.96;100.00;93351.88;2570101;22;20063;-81
2023/01/22 01:35:42;;;;;;;14.40;8.80;;;;;;;-4.89;100.00;93348.78;2569726;23;20035;-81
2023/01/22 01:36:43;;;;;;;15.57;8.40;;;;;;;-4.92;100.00;93349.41;2574469;22;20004;-82
2023/01/22 01:37:44;;;;;;;16.65;9.40;;;;;;;-4.91;100.00;93354.31;2569990;23;20012;-82
2023/01/22 01:38:45;;;;;;;14.98;8.85;;;;;;;-4.89;100.00;93349.53;2557400;23;20028;-82
2023/01/22 01:39:51;;;;;;;12.95;8.38;;;;;;;-4.90;100.00;93352.47;2569983;23;20008;-82
2023/01/22 01:40:52;;;;;;;13.15;7.60;;;;;;;-4.91;100.00;93353.56;2584606;22;20014;-82
2023/01/22 01:41:53;;;;;;;13.63;8.52;;;;;;;-4.94;100.00;93348.94;2582062;23;20353;-83
2023/01/22 01:42:54;;;;;;;14.43;8.25;;;;;;;-4.94;100.00;93343.75;2570026;22;20010;-82
2023/01/22 01:44:29;;;;;;;12.07;8.38;;;;;;;-4.95;100.00;93342.97;2570018;23;20075;-80
2023/01/22 01:45:32;;;;;;;14.30;7.60;;;;;;;-4.97;100.00;93344.34;2576520;23;20000;-83
2023/01/22 01:46:40;;;;;;;13.32;8.38;;;;;;;-4.92;100.00;93349.41;2557865;23;20080;-82
2023/01/22 01:47:41;;;;;;;13.43;8.07;;;;;;;-4.91;100.00;93348.34;2583813;22;20023;-82
2023/01/22 01:48:47;;;;;;;12.65;8.05;;;;;;;-4.94;100.00;93344.50;2569377;23;20451;-82
2023/01/22 01:49:51;;;;;;;16.35;9.07;;;;;;;-4.98;100.00;93348.03;2570779;23;20004;-82
2023/01/22 01:51:15;;;;;;;17.70;8.32;;;;;;;-4.90;100.00;93344.66;2558452;23;20008;-82
2023/01/22 01:52:16;;;;;;;13.25;8.13;;;;;;;-4.98;100.00;93343.59;2573970;23;20058;-82
2023/01/22 01:53:17;;;;;;;11.90;7.60;;;;;;;-4.92;100.00;93355.38;2569866;22;20008;-81
2023/01/22 01:54:19;;;;;;;13.82;8.20;;;;;;;-4.95;100.00;93350.03;2569487;23;20005;-83
2023/01/22 01:55:25;;;;;;;12.60;8.23;;;;;;;-4.92;100.00;93349.41;2569482;23;20407;-82
2023/01/22 01:56:36;;;;;;;13.48;7.80;;;;;;;-4.87;100.00;93344.03;2570619;23;20019;-84
2023/01/22 01:57:38;;;;;;;12.32;7.60;;;;;;;-4.89;100.00;93348.78;2584473;22;20004;-83
2023/01/22 01:58:42;;;;;;;11.93;7.30;;;;;;;-4.89;100.00;93351.38;2569789;23;20009;-82
2023/01/22 01:59:44;;;;;;;10.65;7.20;;;;;;;-4.91;100.00;93353.56;2570235;23;20039;-83
2023/01/22 02:00:49;;;;;;;13.77;8.15;;;;;;;-4.88;100.00;93348.47;2557358;23;20373;-83
2023/01/22 02:01:53;;;;;;;13.68;7.78;;;;;;;-4.91;100.00;93346.50;2558363;23;20084;-83
2023/01/22 02:02:55;;;;;;;12.40;7.28;;;;;;;-4.92;100.00;93355.38;2582597;22;20109;-83
2023/01/22 02:03:56;;;;;;;14.57;7.50;;;;;;;-4.89;100.00;93343.56;2569831;23;20000;-81
2023/01/22 02:04:57;;;;;;;13.50;7.93;;;;;;;-4.95;100.00;93350.81;2557371;23;20000;-81
2023/01/22 02:05:58;;;;;;;14.32;8.27;;;;;;;-5.00;100.00;93352.78;2569524;23;20035;-83
2023/01/22 02:07:00;;;;;;;11.18;7.35;;;;;;;-4.89;100.00;93349.53;2557098;23;20048;-82
2023/01/22 02:08:01;;;;;;;12.77;7.80;;;;;;;-4.84;100.00;93351.97;2594412;22;20003;-84
2023/01/22 02:09:02;;;;;;;14.77;8.10;;;;;;;-4.87;100.00;93354.47;2557102;23;20459;-83
2023/01/22 02:10:05;;;;;;;11.68;7.43;;;;;;;-4.85;100.00;93352.28;2569544;23;20024;-83
2023/01/22 02:11:06;;;;;;;13.77;7.57;;;;;;;-4.79;100.00;93351.03;2570004;22;20079;-82
2023/01/22 02:12:08;;;;;;;11.57;7.65;;;;;;;-4.82;100.00;93341.25;2569699;23;20012;-82
2023/01/22 02:13:13;;;;;;;11.27;7.57;;;;;;;-4.91;100.00;93340.53;2569893;23;20474;-82
2023/01/22 02:14:22;;;;;;;10.20;7.00;;;;;;;-4.91;100.00;93350.94;2558930;23;20051;-82
2023/01/22 02:15:23;;;;;;;12.70;7.47;;;;;;;-4.88;100.00;93345.84;2573287;22;20081;-83
2023/01/22 02:18:29;;;;;;;;;;;;;;;-4.87;100.00;93344.78;2130908;27;20179;-81
2023/01/22 02:19:30;;;;;;;15.27;6.93;;;;;;;-4.88;100.00;93350.31;2112801;28;19911;-82
2023/01/22 02:20:38;;;;;;;10.30;7.07;;;;;;;-4.88;100.00;93350.31;2096418;28;20474;-83
2023/01/22 02:21:42;;;;;;;11.60;7.28;;;;;;;-4.89;100.00;93354.75;2109815;28;20472;-82
2023/01/22 02:22:42;;;;;;;12.55;7.72;;;;;;;-4.93;100.00;93348.63;2108568;28;20032;-82
2023/01/22 02:23:43;;;;;;;11.95;7.38;;;;;;;-4.86;100.00;93353.38;2104330;28;20559;-82
2023/01/22 02:24:44;;;;;;;12.75;7.68;;;;;;;-4.84;100.00;93353.81;2101118;28;20522;-82
2023/01/22 02:25:46;;;;;;;11.38;7.20;;;;;;;-4.90;100.00;93348.00;2097456;28;20050;-83
2023/01/22 02:26:47;;;;;;;11.93;7.20;;;;;;;-4.85;100.00;93347.06;2097572;28;20540;-82
2023/01/22 02:27:48;;;;;;;13.15;7.43;;;;;;;-4.83;100.00;93356.13;2093380;28;20032;-81
2023/01/22 02:28:49;;;;;;;13.00;7.85;;;;;;;-4.83;100.00;93350.13;2095873;28;20028;-83
2023/01/22 02:29:50;;;;;;;11.10;7.50;;;;;;;-4.88;100.00;93343.25;2106811;28;20061;-80
2023/01/22 02:30:51;;;;;;;11.98;7.18;;;;;;;-4.93;100.00;93340.81;2112836;28;20032;-81
2023/01/22 02:31:52;;;;;;;12.10;7.18;;;;;;;-4.89;100.00;93340.97;2107093;28;20051;-82
2023/01/22 02:32:54;;;;;;;12.43;7.75;;;;;;;-4.85;100.00;93347.84;2104643;28;20507;-80
2023/01/22 02:33:55;;;;;;;11.38;7.20;;;;;;;-4.81;100.00;93340.91;2106425;28;20054;-82
2023/01/22 02:34:56;;;;;;;12.77;7.80;;;;;;;-4.74;100.00;93340.44;2111619;28;20024;-81
2023/01/22 02:35:57;;;;;;;12.35;7.93;;;;;;;-4.78;100.00;93336.94;2104415;28;20028;-82
2023/01/22 02:36:58;;;;;;;12.60;7.93;;;;;;;-4.81;100.00;93332.34;2099526;28;20036;-82
2023/01/22 02:37:59;;;;;;;12.05;8.05;;;;;;;-4.73;100.00;93334.16;2102728;28;20509;-81
2023/01/22 02:39:00;;;;;;;11.32;7.53;;;;;;;-4.74;100.00;93342.25;2092668;28;20053;-82
2023/01/22 02:40:02;;;;;;;10.88;7.50;;;;;;;-4.77;100.00;93327.28;2096239;28;20094;-81
2023/01/22 02:41:19;;;;;;;11.27;7.45;;;;;;;-4.84;100.00;93328.50;2102223;28;20377;-82
2023/01/22 02:42:20;;;;;;;11.48;6.88;;;;;;;-4.84;100.00;93327.75;2104300;28;20020;-83
2023/01/22 02:43:21;;;;;;;13.02;7.35;;;;;;;-4.75;100.00;93340.75;2100983;28;20460;-81
2023/01/22 02:44:21;;;;;;;10.35;6.97;;;;;;;-4.78;100.00;93334.34;2099147;28;20013;-81
2023/01/22 02:45:23;;;;;;;12.05;7.60;;;;;;;-4.88;100.00;93337.25;2092749;28;20024;-82
2023/01/22 02:46:26;;;;;;;11.25;6.95;;;;;;;-4.86;100.00;93330.69;2104109;28;20016;-83
2023/01/22 02:47:27;;;;;;;11.40;7.53;;;;;;;-4.84;100.00;93332.97;2096289;28;20032;-81
2023/01/22 02:48:28;;;;;;;10.95;7.78;;;;;;;-4.79;100.00;93332.78;2095898;28;20021;-82
2023/01/22 02:49:29;;;;;;;11.27;7.35;;;;;;;-4.77;100.00;93333.25;2112732;28;20475;-81
2023/01/22 02:50:30;;;;;;;10.80;7.25;;;;;;;-4.84;100.00;93327.75;2104214;28;20505;-81
2023/01/22 02:51:31;;;;;;;11.90;7.22;;;;;;;-4.85;100.00;93334.03;2102384;28;20668;-82
2023/01/22 02:52:32;;;;;;;11.45;7.65;;;;;;;-4.85;100.00;93326.97;2095957;28;20111;-82
2023/01/22 02:53:33;;;;;;;10.85;7.18;;;;;;;-4.79;100.00;93329.41;2092709;28;20017;-81
2023/01/22 02:54:34;;;;;;;11.73;7.80;;;;;;;-4.77;100.00;93324.66;2102656;28;20027;-81
2023/01/22 02:55:37;;;;;;;10.85;7.70;;;;;;;-4.80;100.00;93328.66;2100262;28;20032;-81
2023/01/22 02:56:38;;;;;;;11.15;7.43;;;;;;;-4.79;100.00;93319.75;2104573;28;20063;-82
2023/01/22 02:57:39;;;;;;;10.98;7.07;;;;;;;-4.91;100.00;93323.03;2112716;28;20121;-83
2023/01/22 02:58:40;;;;;;;12.27;7.40;;;;;;;-4.72;100.00;93319.25;2096766;28;20029;-82
2023/01/22 02:59:41;;;;;;;12.43;7.93;;;;;;;-4.69;100.00;93326.47;2096200;28;20074;-82
2023/01/22 03:00:42;;;;;;;13.38;8.27;;;;;;;-4.70;100.00;93323.06;2093638;28;20086;-82
2023/01/22 03:02:19;;;;;;;11.05;7.03;;;;;;;-4.81;100.00;93321.91;2087526;28;20494;-82
2023/01/22 03:03:20;;;;;;;11.55;7.13;;;;;;;-4.71;100.00;93323.41;2094929;28;20030;-82
2023/01/22 03:04:21;;;;;;;11.35;7.15;;;;;;;-4.83;100.00;93324.84;2092204;28;20462;-82
2023/01/22 03:05:22;;;;;;;10.00;7.13;;;;;;;-4.78;100.00;93321.28;2104417;28;20546;-80
2023/01/22 03:06:26;;;;;;;11.30;7.07;;;;;;;-4.81;100.00;93332.34;2104451;28;20025;-82
2023/01/22 03:07:40;;;;;;;11.20;6.82;;;;;;;-4.72;100.00;93327.84;2095933;28;20028;-83
2023/01/22 03:08:42;;;;;;;10.93;6.95;;;;;;;-4.73;100.00;93336.00;2091294;28;20113;-83
2023/01/22 03:09:44;;;;;;;11.77;7.05;;;;;;;-4.71;100.00;93326.75;2095798;28;20517;-83
2023/01/22 03:10:45;;;;;;;10.95;7.68;;;;;;;-4.72;100.00;93327.84;2089873;28;20029;-82
2023/01/22 03:11:46;;;;;;;12.68;7.60;;;;;;;-4.73;100.00;93330.78;2107292;28;20475;-81
2023/01/22 03:22:06;;;;;;;11.68;6.85;;;;;;;-4.75;100.00;93317.28;2106332;28;20427;-83
2023/01/22 03:23:09;;;;;;;11.50;6.72;;;;;;;-4.77;100.00;93319.44;2101053;28;20032;-81
2023/01/22 03:24:10;;;;;;;12.05;7.80;;;;;;;-4.77;100.00;93324.66;2100830;28;20024;-81
2023/01/22 03:25:11;;;;;;;12.98;8.32;;;;;;;-4.77;100.00;93322.06;2107339;28;20031;-82
2023/01/22 03:26:12;;;;;;;9.30;6.72;;;;;;;-4.60;100.00;93321.97;2107901;28;20380;-81
2023/01/22 03:27:13;;;;;;;10.68;7.65;;;;;;;-4.69;100.00;93326.47;2104009;28;20031;-81
2023/01/22 03:28:21;;;;;;;10.88;7.65;;;;;;;-4.71;100.00;93326.75;2096219;28;20353;-81
2023/01/22 03:29:28;;;;;;;11.32;7.45;;;;;;;-4.74;100.00;93324.81;2090797;28;20668;-80
2023/01/22 03:30:28;;;;;;;12.82;7.88;;;;;;;-4.73;100.00;93323.72;2096986;28;20020;-82
2023/01/22 03:31:30;;;;;;;12.52;7.78;;;;;;;-4.71;100.00;93321.53;2090005;28;20028;-83
2023/01/22 03:32:30;;;;;;;10.93;7.60;;;;;;;-4.73;100.00;93322.97;2081929;28;20100;-82
2023/01/22 03:33:32;;;;;;;10.60;7.63;;;;;;;-4.72;100.00;93322.63;2081937;28;20032;-82
2023/01/22 03:34:34;;;;;;;11.77;7.78;;;;;;;-4.76;100.00;93321.72;2082393;28;20377;-80
2023/01/22 03:35:35;;;;;;;10.65;7.43;;;;;;;-4.72;100.00;93319.25;2082276;28;20030;-82
2023/01/22 03:36:36;;;;;;;13.10;7.90;;;;;;;-4.70;100.00;93325.69;2093836;28;20033;-83
2023/01/22 03:37:37;;;;;;;11.48;7.63;;;;;;;-4.73;100.00;93328.16;2089845;28;20040;-82
2023/01/22 03:38:38;;;;;;;13.63;8.27;;;;;;;-4.76;100.00;93319.13;2089145;28;20029;-83
2023/01/22 03:39:40;;;;;;;12.10;7.35;;;;;;;-4.61;100.00;93316.00;2093110;28;20040;-81
2023/01/22 03:40:41;;;;;;;14.32;8.30;;;;;;;-4.71;100.00;93326.00;2097012;28;20536;-82
2023/01/22 03:41:42;;;;;;;14.00;8.65;;;;;;;-4.78;100.00;93325.72;2097609;28;20043;-80
2023/01/22 03:42:43;;;;;;;13.23;8.45;;;;;;;-4.83;100.00;93314.41;2094345;28;20123;-81
2023/01/22 03:43:45;;;;;;;11.52;8.40;;;;;;;-4.72;100.00;93320.03;2077266;28;20030;-82
2023/01/22 03:44:46;;;;;;;13.68;8.77;;;;;;;-4.76;100.00;93324.34;2076901;28;20112;-82
2023/01/22 03:45:46;;;;;;;10.05;7.78;;;;;;;-4.68;100.00;93320.94;2078643;28;20624;-81
2023/01/22 03:46:48;;;;;;;13.98;8.75;;;;;;;-4.68;100.00;93320.16;2077271;28;20045;-82
2023/01/22 03:47:50;;;;;;;11.98;8.15;;;;;;;-4.67;100.00;93322.44;2081880;28;20071;-79
2023/01/22 03:48:51;;;;;;;12.98;8.18;;;;;;;-4.72;100.00;93321.88;2094385;28;20028;-81
2023/01/22 03:49:52;;;;;;;12.85;8.55;;;;;;;-4.69;100.00;93323.84;2088327;28;20025;-81
2023/01/22 03:50:53;;;;;;;13.23;8.05;;;;;;;-4.70;100.00;93320.47;2090420;28;20029;-83
2023/01/22 03:51:55;;;;;;;11.00;7.65;;;;;;;-4.59;100.00;93328.72;2098992;28;20040;-83
2023/01/22 03:52:57;;;;;;;13.30;8.68;;;;;;;-4.66;100.00;93323.22;2085016;28;20144;-82
2023/01/22 03:53:58;;;;;;;15.20;9.13;;;;;;;-4.59;100.00;93324.25;2086548;28;20036;-82
2023/01/22 03:54:59;;;;;;;11.38;8.45;;;;;;;-4.69;100.00;93327.22;2078962;28;20033;-81
2023/01/22 03:56:03;;;;;;;13.88;8.60;;;;;;;-4.74;100.00;93326.63;2076291;28;20056;-81
2023/01/22 03:57:04;;;;;;;13.55;8.45;;;;;;;-4.64;100.00;93321.81;2080118;28;20429;-81
2023/01/22 03:58:05;;;;;;;12.00;8.48;;;;;;;-4.66;100.00;93321.38;2091167;28;20074;-81
2023/01/22 03:59:07;;;;;;;12.80;8.48;;;;;;;-4.70;100.00;93327.53;2082944;28;20509;-82
2023/01/22 04:00:08;;;;;;;13.45;9.02;;;;;;;-4.71;100.00;93326.75;2091119;28;20029;-82
2023/01/22 04:01:12;;;;;;;12.95;8.73;;;;;;;-4.73;100.00;93323.72;2082233;28;20076;-81
2023/01/22 04:02:13;;;;;;;11.60;8.48;;;;;;;-4.73;100.00;93328.94;2087897;28;20033;-81
2023/01/22 04:03:14;;;;;;;13.52;9.00;;;;;;;-4.68;100.00;93322.78;2082559;28;20027;-80
2023/01/22 04:04:31;;;;;;;11.57;8.27;;;;;;;-4.71;100.00;93324.16;2086891;28;20026;-82
2023/01/22 04:05:32;;;;;;;12.15;8.63;;;;;;;-4.65;100.00;93319.53;2095042;28;20100;-82
2023/01/22 04:06:33;;;;;;;14.63;8.60;;;;;;;-4.70;100.00;93317.84;2104107;28;20343;-80
2023/01/22 04:07:34;;;;;;;11.02;8.25;;;;;;;-4.71;100.00;93320.78;2101726;28;20433;-82
2023/01/22 04:08:37;;;;;;;12.38;8.13;;;;;;;-4.49;100.00;93327.56;2089295;28;20103;-82
2023/01/22 04:09:38;;;;;;;11.73;7.97;;;;;;;-4.75;100.00;93323.25;2082714;28;20401;-82
2023/01/22 04:10:39;;;;;;;15.48;8.60;;;;;;;-4.79;100.00;93329.41;2082248;28;20060;-80
2023/01/22 04:11:40;;;;;;;12.10;8.63;;;;;;;-4.72;100.00;93324.47;2082621;28;20033;-81
2023/01/22 04:12:41;;;;;;;12.70;8.10;;;;;;;-4.62;100.00;93330.09;2076904;28;20045;-80
2023/01/22 04:13:43;;;;;;;17.17;9.07;;;;;;;-4.70;100.00;93332.75;2104318;28;20024;-79
2023/01/22 04:14:44;;;;;;;12.45;8.73;;;;;;;-4.78;100.00;93330.94;2099373;28;20024;-83
2023/01/22 04:15:45;;;;;;;15.30;8.63;;;;;;;-4.68;100.00;93325.38;2094899;28;20020;-82
2023/01/22 04:16:46;;;;;;;12.63;8.55;;;;;;;-4.75;100.00;93331.06;2097923;28;20107;-82
2023/01/22 04:17:47;;;;;;;13.80;8.63;;;;;;;-4.74;100.00;93331.84;2089654;28;20179;-82
2023/01/22 04:18:48;;;;;;;15.20;9.05;;;;;;;-4.74;100.00;93322.19;2081655;28;20169;-83
2023/01/22 04:19:49;;;;;;;12.18;7.97;;;;;;;-4.75;100.00;93330.31;2089546;28;20036;-81
2023/01/22 04:20:53;;;;;;;13.63;9.05;;;;;;;-4.70;100.00;93328.28;2098596;28;20380;-83
2023/01/22 04:21:54;;;;;;;13.90;8.60;;;;;;;-4.75;100.00;93331.06;2099456;28;20056;-80
2023/01/22 04:22:55;;;;;;;13.50;8.73;;;;;;;-4.80;100.00;93331.25;2096766;28;20025;-80
2023/01/22 04:23:56;;;;;;;15.38;8.65;;;;;;;-4.75;100.00;93330.31;2075707;28;20034;-82
2023/01/22 04:24:57;;;;;;;16.40;9.30;;;;;;;-4.75;100.00;93335.53;2082732;28;20028;-81
2023/01/22 04:25:58;;;;;;;13.70;8.20;;;;;;;-4.73;100.00;93334.16;2087598;28;20032;-82
2023/01/22 04:26:59;;;;;;;13.93;9.13;;;;;;;-4.68;100.00;93338.41;2089659;28;20032;-83
2023/01/22 04:28:01;;;;;;;14.82;9.35;;;;;;;-4.68;100.00;93336.56;2086340;28;20425;-80
2023/01/22 04:29:02;;;;;;;14.88;9.32;;;;;;;-4.69;100.00;93324.63;2088643;28;20029;-82
2023/01/22 04:30:05;;;;;;;15.65;9.40;;;;;;;-4.67;100.00;93337.34;2089585;28;20509;-82
2023/01/22 04:31:07;;;;;;;15.82;9.75;;;;;;;-4.69;100.00;93334.28;2074380;28;20060;-83
2023/01/22 04:32:08;;;;;;;15.18;9.52;;;;;;;-4.73;100.00;93336.00;2081702;28;20025;-82
2023/01/22 04:33:09;;;;;;;17.45;10.07;;;;;;;-4.71;100.00;93336.44;2097897;28;20032;-82
2023/01/22 04:34:10;;;;;;;14.27;8.90;;;;;;;-4.70;100.00;93338.72;2097536;28;20028;-83
2023/01/22 04:35:11;;;;;;;13.07;8.70;;;;;;;-4.68;100.00;93338.41;2081967;28;20025;-81
2023/01/22 04:36:12;;;;;;;15.93;9.38;;;;;;;-4.70;100.00;93338.72;2106014;28;20047;-82
2023/01/22 04:37:13;;;;;;;13.95;8.75;;;;;;;-4.67;100.00;93335.50;2097736;28;20020;-81
2023/01/22 04:38:14;;;;;;;14.57;9.23;;;;;;;-4.52;100.00;93341.25;2093900;28;20017;-82
2023/01/22 04:39:15;;;;;;;14.65;8.85;;;;;;;-4.48;100.00;93345.50;2094758;28;20036;-81
2023/01/22 04:40:16;;;;;;;13.10;8.88;;;;;;;-4.57;100.00;93336.97;2080578;28;20037;-83
2023/01/22 04:41:17;;;;;;;15.80;9.52;;;;;;;-4.60;100.00;93340.97;2087736;28;20029;-81
2023/01/22 04:42:26;;;;;;;12.68;8.80;;;;;;;-4.63;100.00;93336.38;2087354;28;20445;-82
2023/01/22 04:43:27;;;;;;;15.80;9.50;;;;;;;-4.65;100.00;93343.00;2090635;28;20048;-81
2023/01/22 04:44:28;;;;;;;15.32;9.55;;;;;;;-4.70;100.00;93340.56;2092130;28;20021;-82
2023/01/22 04:45:29;;;;;;;14.43;8.85;;;;;;;-4.43;100.00;93337.53;2089504;28;20028;-82
2023/01/22 04:46:30;;;;;;;16.33;9.75;;;;;;;-4.58;100.00;93341.41;2089491;28;20104;-81
2023/01/22 04:47:31;;;;;;;18.73;10.32;;;;;;;-4.69;100.00;93334.28;2086343;28;20509;-81
2023/01/22 04:48:32;;;;;;;17.38;10.00;;;;;;;-4.67;100.00;93340.69;2097427;28;20028;-82
2023/01/22 04:49:33;;;;;;;15.88;9.70;;;;;;;-4.67;100.00;93340.69;2098235;28;20021;-82
2023/01/22 04:50:34;;;;;;;17.50;10.45;;;;;;;-4.72;100.00;93342.72;2097783;28;20189;-83
2023/01/22 04:51:35;;;;;;;15.68;9.48;;;;;;;-4.69;100.00;93339.50;2073859;28;20037;-81
2023/01/22 04:52:36;;;;;;;19.13;10.55;;;;;;;-4.73;100.00;93341.22;2088006;28;20104;-83
2023/01/22 04:53:37;;;;;;;14.85;9.73;;;;;;;-4.69;100.00;93345.47;2092431;28;20021;-82
2023/01/22 04:54:38;;;;;;;14.98;9.70;;;;;;;-4.71;100.00;93347.63;2093789;28;20075;-82
2023/01/22 04:55:40;;;;;;;15.10;9.63;;;;;;;-4.75;100.00;93349.31;2088124;28;20032;-82
2023/01/22 04:56:41;;;;;;;17.40;9.80;;;;;;;-4.79;100.00;93345.06;2099448;28;20016;-80
2023/01/22 04:57:42;;;;;;;15.68;10.30;;;;;;;-4.77;100.00;93342.91;2087104;28;20051;-82